Timeline UpdatesTrip UpdatesNews PostsPvt Posts♥♥Travel TipsAdmin PostsConv PostsFollowed PostsChat RequestsBlog PostsPNR Posts

Disclaimer
Search
 
 
Thu Nov 27, 2014 00:09:52 ISTHomeTrainsΣChainsAtlasPNRForumGalleryNewsFAQTripsMembersLoginFeedback
No Recent News for this Train
Other Trains in the News **new
Latest...
1. 2S avbl b/w mumbai & surat 2. MST holders permitted to travel in IInd class general coaches between Delhi-Rohtak-Bhatinda
Sun Nov 23, 2014 (07:58PM)
⇐ Return Journey: Train# 19024

19023/Mumbai Firozpur Janta Express

Time-Table HAS CHANGED.
Nov 23 (7:58PM)
Change Departure Station:
Change Arrival Station:
Post a Train Travel TipPost a Train Travel Tip **new
Post a Comment/Question/Picture/VideoPost a Comment/Question/Picture/Video
Inaugural Run
Mon Oct 01, 1956
Pantry/Catering
✕ NO Pantry Car
✓ Catering Avbl
Catering from local vendors
RSA - Rake Sharing
No RSA. Independent Rake.
Rake/Coach Composition
LOCO, HCPV, SLR, GS, S-8, S-7, S-6, S-5, S-4, S-3, S-2, S-1, GS, GS(MST), GS, SLR Author: Manish Kr Singh Entry: 640399
Loco
BCT NDLS = GZB WAP#5, NDLS-FZR TKD WDM -3A LDH
News    PNR    Forum    Time-Table    Availability    Fare Chart    Map    Arr/Dep History    Trips    Gallery    ΣChains    X/O    Timeline    
Travel Time: 29h 20m    69 halts    Distance: 1386 km    Avg Speed: 47 km/hr
Type: Mail/Express
Zone: WR/Western
Departs @ 07:25
Platform# 4
SMTWTFS
Mumbai Central/BCT 
Arrives @ 12:45 +1 night
Platform# 1
SMTWTFS
New Delhi/NDLS 

69 halts. 225 intermediate Stations between Mumbai Central and New Delhi

Show ALL intermediate Stations  Show Old Time-Table

#TrkCodeStation NameX/OArrivesAvgDepartsAvgHaltPFDay#KmSpeedElevZoneAddress
1/==/BCTMumbai Central (9)»  -07:25-410.0403mWRMumbai 400008, Maharashtra
2/==/DDRMumbai Dadar Western (6)  07:34-07:37-3m315.9536mWRMumbai, Maharashtra
3/==/BVIMumbai Borivali (8)  08:04-08:07-3m4129.75119mWRMumbai - 400092, Maharashtra
4/==/PLGPalghar (3)O  09:14-09:16-2m1186.64219mWRPalghar, Maharashtra
5/==/BORBoisar (3)X  09:32-09:34-2m2197.93317mWRBoisar Tel.no-02525-266626, Maharashtra
6/==/VGNVangaon (3)XO  09:51-09:52-1m11107.35311mWRDist. Palghar, Maharashtra
7/==/DRDDahanu Road (5)X  10:06-10:08-2m11119.67612mWRDahanu, Maharashtra
8/==/UBRUmbargam Road (3)XO  10:24-10:26-2m11139.93630mWRUmbergaon, Gujarat
9/==/SJNSanjan (3)X  10:34 10:35-10:36 10:37-2m11145.36922mWRSanjan, Gujarat
10/==/BLDBhilad (3)  10:46 10:47-10:48 10:49-2m21156.96233mWRBhilad, Gujarat
11/==/VAPIVapi (3)X  11:00-11:02-2m11168.14827mWRVapi, Gujarat
12/==/UVDUdvada (3)X  11:14-11:16-2m--1177.76018mWRUdvada, Gujarat
13/==/PADPardi (3)X  11:22-11:24-2m--1183.74919mWRValsad, Gujarat
14/==/BLValsad (3)X  11:42 11:37-11:47 11:42-5m21194.47215mWRValsad, Gujarat
15/==/BIMBilimora Junction (4)X  11:59 11:57-12:01 12:02-2 5m11212.33711mWRBilimora, Gujarat
16/==/AMLAmalsad (3)  12:10 12:11-12:12 12:13-2m11217.910412mWRAmalsad, Gujarat
17/==/NVSNavsari (3)  12:22-12:27-5m11233.54614mWRNavsari, Gujarat
18/==/MRLMaroli (3)X  12:38-12:40-2m11241.92715mWRMaroli, Gujarat
19/==/STSurat (4)X  13:27-13:37-10m11263.17919mWRSurat 395001, Gujarat
20/==/KIMKim (2)X  13:55-13:57-2m11286.75818mWRNH 8, Gujarat
21/==/KSBKosamba Junction (3)  14:05-14:07-2m11294.57130mWRKosamba, Gujarat
22/==/PAOPanoli (3)  14:14-14:16-2m11302.77729mWRPanoli, Gujarat
23/==/AKVAnkleshwar Junction (4)  14:24-14:26-2m11313.03719mWRAnkleshwar, Gujarat
24/==/BHBharuch Junction (5)  14:41-14:46-5m31322.48019mWRBharuch, Gujarat
25/==/NIUNabipur (3)14:55-14:57-2m--1334.48024mWRNabipur, Gujarat
26/==/PLJPalej (4)X  15:07-15:09-2m--1347.88329mWRPalej, Gujarat
27/==/MYGMiyagam Karjan (2)X  15:20-15:22-2m21363.05429mWRKarjan, Gujarat
28/==/BRCVadodara Junction (7)  15:55-16:05-10m61392.97336mWRVadodara 390005, Gujarat
29/==/SMLASamlaya Junction (3)  16:27-16:29-2m--1419.57567mWRVadodara, Gujarat
30/==/DRLDerolX  16:48-16:50-2m--1443.24381mWRKalol, Gujarat
31/==/GDAGodhra Junction (3)  17:23-17:28-5m21466.858122mWRGodhra, Gujarat
32/==/SATSant Road (2)X  17:47 17:49-17:49 17:51-2m--1487.171169mWROrwara, Gujarat
33/==/PPDPiplod Junction  17:59 18:01-18:01 18:02-2 1m--1499.068209mWRPiplod, Gujarat
34/==/LMKLimkheda  18:07 18:09-18:09 18:10-2 1m--1506.973205mWRLimkheda, Gujarat
35/==/DHDDahod (3)  18:37-18:42-5m--1539.990313mWRDahod, Gujarat
36/==/MGNMeghnagar (3)X  19:02 19:04-19:04 19:06-2m--1573.060317mWRJhabua, Madhya Pradesh
37/==/THDRThandla Road (2)X  19:12 19:14-19:14 19:15-2 1m--1581.069317mWRJhabua, Madhya Pradesh
38/==/BMIBamnia (2)X  19:37 19:39-19:39 19:41-2m--1608.550392mWRBamnia, Madhya Pradesh
39/==/RTMRatlam Junction (7)X  20:35-20:55-20m51653.366495mWRRatlam 457001, Madhya Pradesh
40/==/KUHKhachrod (2)X  21:17 21:20-21:19 21:22-2m--1680.922497mWRUjjain, Madhya Pradesh
41/==/NADNagda Junction (4)X  22:00-22:05-5m--1694.768468mWRNagda, Madhya Pradesh
42/==/MEPMahidpur Road  22:20-22:22-2m--1711.890493mWCRGogapur, Madhya Pradesh
43/==/VMAVikramgarh Alot (2)X  22:38-22:40-2m21735.782443mWCRKota Division, Madhya Pradesh
44/==/CMUChau Mahla (3)  22:56-22:58-2m21757.566426mWCRJhalawar, Rajasthan
45/==/SVASuwasra (2)  23:12-23:14-2m--1772.958450mWCRSuwasra, Madhya Pradesh
46/==/SGZShamgarh (3)  23:28-23:30-2m--1786.369463mWCRMandsaur, Madhya Pradesh
47/==/BWMBhawani Mandi (3)  23:59-00:01-2m--1819.871384mWCRBhawani Mandi, Madhya Pradesh
48/==/JHWJhalawar Road (3)X  00:15-00:17-2m--2836.353361mWCRJhalawar City, Rajasthan
49/==/RMARamganj Mandi Junction (3)X  00:31-00:33-2m--2848.682358mWCRRamganj Mandi, Rajasthan
50/==/KOTAKota Junction (5)X  01:25-01:35-10m12919.971256mWCRKota, Rajasthan
51/==/LKELakheri (3)X  02:26-02:28-2m--2980.555228mWCRBundi, Rajasthan
52/==/IDGIndargarh Sumerganj Mandi (2)X  02:40-02:42-2m--2991.566247mWCRIndargarh, Rajasthan
53/==/SWMSawai Madhopur Junction (4)X  03:15-03:20-5m--21027.772266mWCRSawai Madhopur, Rajasthan
54/==/MLZMalarna  03:45-03:47-2m--21057.944236mWCRSawai Madhopur, Rajasthan
55/==/NNWNarayanpur Tatwara (2)XO  04:10-04:12-2m--21074.712256mWCRSawai Madhopur, Rajasthan
56/==/GGCGangapur City (3)O  05:40-05:45-5m121091.660270mWCRGangapur, Rajasthan
57/==/SMBJShri Mahabirji (3)  06:19-06:20-1m--21125.747240mWCRKarauli, Rajasthan
58/==/HANHindaun City (2)  06:33-06:35-2m--21135.979230mWCRKarauli, Rajasthan
59/==/FSPFateh Singhpura  06:45-06:47-2m--21149.166223mWCRState Highway 1, Rajasthan
60/==/BXNBayana Junction (3)O  07:05-07:10-5m--21168.850198mWCRBayana, Rajasthan
61/==/BTEBharatpur Junction (5)X  08:00-08:05-5m--21210.824174mWCRBharatpur, Rajasthan
62/==/MTJMathura Junction (10)  09:35 09:30-09:45 09:35-10 5m421244.369179mNCRMathura, Uttar Pradesh
63/==/CHJChata (4)X  10:07 10:02-10:09 10:04-2m--21275.551 NCRChhata, Uttar Pradesh
64/==/KSVKosi Kalan (3)X  10:20 10:16-10:22 10:18-2m121285.854189mNCRKosi Kalan, Uttar Pradesh
65/==/PWLPalwal (8)X  11:08 11:05-11:10 11:07-2m--21328.279200mNRPalwal, Haryana
66/==/BVHBallabgarh (5)  11:28 11:23-11:30 11:25-2m--21349.440203mNRFaridabad, Haryana
67/==/FDBFaridabad (4)X  11:41 11:37-11:43 11:39-2m221357.555206mNRold Faridabad, Haryana
68/==/TKDTuglakabad (2)  11:55 11:51-11:57 11:53-2m--21368.628213mNRNear Tughlakabad Metro Station, Delhi NCT
69/==/OKAOkhla (4)X  12:06-12:08 12:07-2 1m--21374.628221mNRIshwar Nagar Mathura Road, Delhi NCT
70/==/NZMDelhi Hazrat Nizamuddin (7)  12:18 12:15-12:20 12:17-2m321378.316209mNRNew Delhi 110013, Delhi NCT
71/==/NDLSNew Delhi (16)•XO  12:45-13:15-30m121385.614215mNRNew Delhi 110002, Delhi NCT
72/==/DKZDelhi KishanGanj (2)  13:32-13:34-2m--21389.530220mNRSarai Rohilla, Delhi NCT
73/==/SSBShakur Basti  13:49 13:48-13:51 13:50-2m--21396.545216mNRPitampura, Delhi NCT
74/==/NNONangloi  14:00-14:02-2m--21403.958219mNRJJ Colony No 1, Delhi NCT
75/==/BGZBahadurgarh  14:14 14:15-14:16 14:17-2m--21416.467220mNRBahadurgarh, Haryana
76/==/SPZSampla  14:43 14:33-14:45 14:35-2m--21434.434222mNRSampla, Haryana
77/==/ROKRohtak Junction (3)  15:10 15:15-15:15 15:20-5m--21456.782220mNRRohtak, Haryana
78|==|JNAJulana  15:41 15:43-15:43 15:45-2m--21488.151226mNRJulana, Haryana
79|==|JINDJind Junction (3)  16:15-16:20-5m--21513.875222mNRJind 126102, Haryana
80|==|UCAUchana  16:35-16:37-2m--21532.565225mNRDistrict Jind, Haryana
81|==|NRWNarwana Junction (4)  16:51-16:53-2m--21547.773235mNRKKDE, Haryana
82|==|TUNTohana (2)  17:14-17:15-1m--21573.237232mNRTohana, Haryana
83|-=|JHLJakhal Junction  17:35-17:40-5m--21585.478225mNRJakhal, Haryana
84!==!BRZBareta  17:51-17:53-2m--21599.671223mNRBareta, Punjab
85!==!BLZBudhlada  18:06-18:08-2m--21615.064223mNRBudhlada, Punjab
86!==!MSZMansaX  18:23-18:25-2m--21631.137222mNRMansa, Punjab
87!==!KTKLKotli Kalan  18:39-18:41-2m--21639.7101219mNRState Highway 12A, Punjab
88!==!MAURMaur  18:47-18:49-2m--21649.835220mNRMaur Mandi, Punjab
89!==!BTIBathinda Junction (6)  19:50-20:00-10m121685.367208mNRBathinda, Punjab
90|--|GNAGoneana Bhai Jagta (3)  20:11-20:13-2m121697.657206mNRGoniana, Punjab
91|--|GJUTGangsar Jaitu (3)  20:28-20:30-2m121711.849207mNRJaitu, Punjab
92|--|KKPKot Kapura Junction (3)  20:50-20:52-2m121728.1590mNRKotkapura, Punjab
93|--|FDKFaridkot (3)  21:05-21:07-2m121740.827202mNRFaridkot, Punjab
94|--|FZRFirozpur Cantt. Junction (5)  22:20--121773.1-200mNRFirozpur Cantt 152001, Punjab
Scroll to Top
Scroll to Bottom